National Weather Service Raw Text Product

Displaying AFOS PIL: TAFDSM Received: 2017-12-07 17:21 UTC


275 
FTUS43 KDMX 071721
TAFDSM
TAF
KDSM 071721Z 0718/0818 32010KT P6SM FEW250
     FM080000 26006KT P6SM FEW250
     FM081000 23006KT P6SM BKN080=